createdAt,value
2023-03-12T00:01:12.634Z,75
2023-03-12T00:04:38.766Z,74
2023-03-12T00:08:03.980Z,75
2023-03-12T00:11:29.225Z,75
2023-03-12T00:14:54.400Z,75
2023-03-12T00:18:19.597Z,75
2023-03-12T00:21:44.788Z,75
2023-03-12T00:25:09.981Z,74
2023-03-12T00:28:35.288Z,74
2023-03-12T00:32:00.360Z,74
2023-03-12T00:35:25.575Z,74
2023-03-12T00:38:50.727Z,74
2023-03-12T00:42:15.931Z,74
2023-03-12T00:45:41.158Z,75
2023-03-12T00:49:06.314Z,74
2023-03-12T00:52:31.531Z,74
2023-03-12T00:55:56.741Z,74
2023-03-12T00:59:21.919Z,74
2023-03-12T01:02:47.158Z,74
2023-03-12T01:06:12.320Z,74
2023-03-12T01:09:37.513Z,73
2023-03-12T01:13:02.750Z,73
2023-03-12T01:16:28.009Z,74
2023-03-12T01:19:53.186Z,74
2023-03-12T01:23:18.358Z,73
2023-03-12T01:26:43.545Z,73
2023-03-12T01:30:08.725Z,73
2023-03-12T01:33:35.025Z,74
2023-03-12T01:37:00.244Z,74
2023-03-12T01:40:25.411Z,73
2023-03-12T01:43:50.580Z,74
2023-03-12T01:47:15.783Z,74
2023-03-12T01:50:40.971Z,74
2023-03-12T01:54:06.199Z,74
2023-03-12T01:57:31.357Z,74
2023-03-12T02:00:56.630Z,74
2023-03-12T02:04:21.799Z,74
2023-03-12T02:07:46.957Z,74
2023-03-12T02:11:12.162Z,75
2023-03-12T02:14:37.333Z,75
2023-03-12T02:18:02.607Z,75
2023-03-12T02:21:27.791Z,75
2023-03-12T02:24:52.992Z,75
2023-03-12T02:28:18.208Z,74
2023-03-12T02:31:43.385Z,75
2023-03-12T02:35:08.559Z,75
2023-03-12T02:38:33.736Z,75
2023-03-12T02:41:58.938Z,75
2023-03-12T02:45:24.117Z,75
2023-03-12T02:48:49.269Z,75
2023-03-12T02:52:14.470Z,75
2023-03-12T02:55:39.648Z,74
2023-03-12T02:59:04.918Z,75
2023-03-12T03:02:30.072Z,75
2023-03-12T03:05:55.266Z,74
2023-03-12T03:09:20.451Z,75
2023-03-12T03:12:45.634Z,75
2023-03-12T03:16:10.870Z,75
2023-03-12T03:19:36.069Z,75
2023-03-12T03:23:01.231Z,75
2023-03-12T03:26:26.432Z,75
2023-03-12T03:29:47.530Z,75
2023-03-12T03:33:12.730Z,75
2023-03-12T03:36:37.947Z,75
2023-03-12T03:40:03.108Z,76
2023-03-12T03:43:28.292Z,75
2023-03-12T03:46:53.531Z,76
2023-03-12T03:50:18.676Z,75
2023-03-12T03:53:43.908Z,76
2023-03-12T03:57:09.080Z,76
2023-03-12T04:00:34.251Z,76
2023-03-12T04:03:59.448Z,76
2023-03-12T04:07:24.633Z,76
2023-03-12T04:10:49.834Z,76
2023-03-12T04:14:15.019Z,77
2023-03-12T04:17:40.259Z,76
2023-03-12T04:21:05.418Z,76
2023-03-12T04:24:30.640Z,76
2023-03-12T04:27:55.886Z,75
2023-03-12T04:31:21.059Z,75
2023-03-12T04:34:46.225Z,75
2023-03-12T04:38:11.428Z,74
2023-03-12T04:41:36.608Z,74
2023-03-12T04:45:01.823Z,74
2023-03-12T04:48:26.983Z,74
2023-03-12T04:51:52.171Z,74
2023-03-12T04:55:17.361Z,74
2023-03-12T04:58:42.565Z,73
2023-03-12T05:02:07.768Z,73
2023-03-12T05:05:32.922Z,74
2023-03-12T05:08:58.100Z,74
2023-03-12T05:12:23.298Z,74
2023-03-12T05:15:48.482Z,75
2023-03-12T05:19:13.702Z,76
2023-03-12T05:22:38.850Z,75
2023-03-12T05:26:04.055Z,75
2023-03-12T05:29:29.245Z,75
2023-03-12T05:32:54.500Z,75
2023-03-12T05:36:19.629Z,75
2023-03-12T05:39:44.790Z,75
2023-03-12T05:43:09.965Z,74
2023-03-12T05:46:35.150Z,75
2023-03-12T05:50:00.365Z,76
2023-03-12T05:53:25.570Z,76
2023-03-12T05:56:50.721Z,75
2023-03-12T06:00:15.918Z,75
2023-03-12T06:03:41.167Z,75
2023-03-12T06:07:06.271Z,75
2023-03-12T06:10:31.486Z,76
2023-03-12T06:13:56.648Z,76
2023-03-12T06:17:21.826Z,76
2023-03-12T06:20:47.256Z,75
2023-03-12T06:24:12.463Z,74
2023-03-12T06:27:37.740Z,75
2023-03-12T06:31:02.933Z,75
2023-03-12T06:34:28.034Z,76
2023-03-12T06:37:53.328Z,76
2023-03-12T06:41:18.532Z,75
2023-03-12T06:44:43.822Z,75
2023-03-12T06:48:09.014Z,74
2023-03-12T06:51:34.422Z,74
2023-03-12T06:54:59.588Z,75
2023-03-12T06:58:24.771Z,75
2023-03-12T07:01:50.038Z,74
2023-03-12T07:05:15.161Z,74
2023-03-12T07:08:40.401Z,74
2023-03-12T07:12:05.594Z,74
2023-03-12T07:15:30.771Z,74
2023-03-12T07:18:56.026Z,73
2023-03-12T07:22:21.214Z,72
2023-03-12T07:25:46.391Z,73
2023-03-12T07:29:11.562Z,73
2023-03-12T07:32:36.909Z,73
2023-03-12T07:36:02.051Z,74
2023-03-12T07:39:27.105Z,74
2023-03-12T07:42:52.528Z,72
2023-03-12T07:46:17.777Z,72
2023-03-12T07:49:43.011Z,73
2023-03-12T07:53:08.240Z,74
2023-03-12T07:56:35.040Z,73
2023-03-12T07:59:58.668Z,73
2023-03-12T08:03:24.091Z,73
2023-03-12T08:06:49.094Z,72
2023-03-12T08:10:14.336Z,73
2023-03-12T08:13:39.429Z,72
2023-03-12T08:17:04.610Z,72
2023-03-12T08:20:29.796Z,72
2023-03-12T08:23:55.006Z,71
2023-03-12T08:27:20.224Z,73
2023-03-12T08:30:45.409Z,73
2023-03-12T08:34:10.620Z,72
2023-03-12T08:37:35.801Z,73
2023-03-12T08:41:01.021Z,72
2023-03-12T08:44:26.249Z,72
2023-03-12T08:47:51.427Z,72
2023-03-12T08:51:16.977Z,72
2023-03-12T08:54:41.867Z,72
2023-03-12T08:58:07.083Z,74
2023-03-12T09:01:32.304Z,72
2023-03-12T09:04:57.491Z,73
2023-03-12T09:08:22.735Z,73
2023-03-12T09:11:47.902Z,71
2023-03-12T09:15:13.106Z,69
2023-03-12T09:18:39.991Z,71
2023-03-12T09:22:03.589Z,70
2023-03-12T09:25:28.805Z,70
2023-03-12T09:28:54.000Z,70
2023-03-12T09:32:19.227Z,70
2023-03-12T09:35:44.464Z,71
2023-03-12T09:39:09.580Z,69
2023-03-12T09:42:34.793Z,71
2023-03-12T09:46:00.005Z,68
2023-03-12T09:49:25.172Z,67
2023-03-12T09:52:50.385Z,68
2023-03-12T09:56:15.573Z,68
2023-03-12T09:59:40.788Z,68
2023-03-12T10:03:05.988Z,67
2023-03-12T10:06:31.223Z,68
2023-03-12T10:09:56.402Z,67
2023-03-12T10:13:21.595Z,67
2023-03-12T10:16:46.798Z,68
2023-03-12T10:20:12.022Z,68
2023-03-12T10:23:37.458Z,68
2023-03-12T10:27:02.814Z,68
2023-03-12T10:30:27.973Z,68
2023-03-12T10:33:53.215Z,67
2023-03-12T10:37:18.432Z,65
2023-03-12T10:40:43.607Z,66
2023-03-12T10:44:08.935Z,66
2023-03-12T10:47:34.117Z,67
2023-03-12T10:50:59.298Z,68
2023-03-12T10:54:24.485Z,68
2023-03-12T10:57:49.669Z,69
2023-03-12T11:01:15.090Z,70
2023-03-12T11:04:40.069Z,70
2023-03-12T11:08:05.260Z,72
2023-03-12T11:11:30.439Z,72
2023-03-12T11:14:55.646Z,71
2023-03-12T11:18:20.884Z,72
2023-03-12T11:21:46.050Z,70
2023-03-12T11:25:11.244Z,70
2023-03-12T11:28:36.512Z,71
2023-03-12T11:32:01.741Z,71
2023-03-12T11:35:27.043Z,70
2023-03-12T11:38:52.100Z,70
2023-03-12T11:42:17.302Z,70
2023-03-12T11:45:42.511Z,70
2023-03-12T11:49:07.698Z,71
2023-03-12T11:52:32.928Z,71
2023-03-12T11:55:58.128Z,70
2023-03-12T11:59:23.347Z,70
2023-03-12T12:02:48.593Z,71
2023-03-12T12:06:13.765Z,70
2023-03-12T12:09:39.007Z,70
2023-03-12T12:13:04.196Z,71
2023-03-12T12:16:29.478Z,71
2023-03-12T12:19:54.662Z,70
2023-03-12T12:23:19.875Z,72
2023-03-12T12:26:45.094Z,71
2023-03-12T12:30:10.329Z,71
2023-03-12T12:33:35.528Z,72
2023-03-12T12:37:00.741Z,73
2023-03-12T12:40:26.055Z,74
2023-03-12T12:43:51.325Z,75
2023-03-12T12:47:16.530Z,74
2023-03-12T12:50:41.724Z,75
2023-03-12T12:54:07.846Z,74
2023-03-12T12:57:33.053Z,75
2023-03-12T13:00:58.265Z,76
2023-03-12T13:04:23.528Z,77
2023-03-12T13:07:48.646Z,79
2023-03-12T13:11:18.611Z,78
2023-03-12T13:14:39.062Z,79
2023-03-12T13:18:04.274Z,79
2023-03-12T13:21:29.466Z,80
2023-03-12T13:24:54.672Z,81
2023-03-12T13:28:19.866Z,81
2023-03-12T13:31:45.067Z,82
2023-03-12T13:35:10.264Z,81
2023-03-12T13:38:35.448Z,82
2023-03-12T13:42:00.621Z,83
2023-03-12T13:45:25.830Z,84
2023-03-12T13:48:51.049Z,84
2023-03-12T13:52:16.294Z,84
2023-03-12T13:55:41.443Z,84
2023-03-12T13:59:06.644Z,83
2023-03-12T14:02:31.855Z,84
2023-03-12T14:05:57.458Z,84
2023-03-12T14:09:22.871Z,84
2023-03-12T14:12:48.390Z,85
2023-03-12T14:16:13.785Z,86
2023-03-12T14:19:39.139Z,86
2023-03-12T14:23:04.519Z,86
2023-03-12T14:26:29.868Z,87
2023-03-12T14:29:55.287Z,87
2023-03-12T15:05:32.169Z,88
2023-03-12T15:08:57.565Z,89
2023-03-12T15:12:22.913Z,89
2023-03-12T15:15:48.318Z,89
2023-03-12T15:19:13.726Z,89
2023-03-12T15:22:39.142Z,89
2023-03-12T15:26:04.519Z,89
2023-03-12T15:29:29.889Z,89
2023-03-12T15:32:55.430Z,89
2023-03-12T15:36:20.764Z,89
2023-03-12T15:39:46.240Z,90
2023-03-12T15:43:11.462Z,90
2023-03-12T15:46:36.931Z,90
2023-03-12T15:50:02.194Z,90
2023-03-12T15:53:27.532Z,90
2023-03-12T15:56:52.986Z,91
2023-03-12T16:00:18.327Z,91
2023-03-12T16:03:43.741Z,91
2023-03-12T16:07:09.076Z,91
2023-03-12T16:10:34.490Z,91
2023-03-12T16:13:59.938Z,91
2023-03-12T16:17:25.286Z,91
2023-03-12T16:20:50.715Z,90
2023-03-12T16:24:16.075Z,91
2023-03-12T16:27:41.319Z,91
2023-03-12T16:31:06.860Z,90
2023-03-12T16:34:32.008Z,91
2023-03-12T16:37:57.956Z,91
2023-03-12T16:41:22.626Z,91
2023-03-12T16:44:47.865Z,91
2023-03-12T16:48:13.118Z,91
2023-03-12T16:51:38.482Z,92
2023-03-12T16:55:03.913Z,92
2023-03-12T16:58:29.283Z,92
2023-03-12T17:01:54.746Z,93
2023-03-12T17:05:20.076Z,93
2023-03-12T17:08:45.434Z,93
2023-03-12T17:12:10.861Z,93
2023-03-12T17:15:36.267Z,93
2023-03-12T17:19:01.668Z,93
2023-03-12T17:22:27.241Z,92
2023-03-12T17:25:52.622Z,92
2023-03-12T17:29:18.189Z,92
2023-03-12T17:32:43.833Z,92
2023-03-12T17:36:09.134Z,92
2023-03-12T17:39:34.657Z,92
2023-03-12T17:43:00.060Z,92
2023-03-12T17:46:25.504Z,92
2023-03-12T17:49:50.911Z,92
2023-03-12T17:53:16.293Z,92
2023-03-12T17:56:41.742Z,92
2023-03-12T18:00:07.107Z,92
2023-03-12T18:03:32.526Z,92
2023-03-12T18:06:57.961Z,92
2023-03-12T18:10:23.352Z,92
2023-03-12T18:13:48.660Z,92
2023-03-12T18:17:13.886Z,92
2023-03-12T18:20:39.961Z,92
2023-03-12T18:24:13.304Z,92
2023-03-12T18:27:29.579Z,92
2023-03-12T18:30:54.851Z,93
2023-03-12T18:34:20.852Z,93
2023-03-12T18:37:46.045Z,93
2023-03-12T18:41:11.365Z,93
2023-03-12T18:44:36.557Z,94
2023-03-12T18:48:01.849Z,94
2023-03-12T18:51:26.981Z,94
2023-03-12T18:54:52.191Z,94
2023-03-12T18:58:17.406Z,94
2023-03-12T19:01:42.650Z,95
2023-03-12T19:05:07.883Z,95
2023-03-12T19:08:33.018Z,94
2023-03-12T19:11:58.234Z,95
2023-03-12T19:15:23.443Z,95
2023-03-12T19:18:48.812Z,95
2023-03-12T19:22:14.902Z,95
2023-03-12T19:25:40.066Z,95
2023-03-12T19:29:05.274Z,96
2023-03-12T19:32:42.132Z,96
2023-03-12T19:35:55.719Z,96
2023-03-12T19:39:21.847Z,96
2023-03-12T19:42:46.062Z,96
2023-03-12T19:46:11.306Z,96
2023-03-12T19:49:36.434Z,96
2023-03-12T19:53:01.640Z,96
2023-03-12T19:56:26.838Z,96
2023-03-12T19:59:52.033Z,96
2023-03-12T20:03:17.283Z,96
2023-03-12T20:06:42.437Z,96
2023-03-12T20:10:07.641Z,96
2023-03-12T20:13:32.911Z,96
2023-03-12T20:16:58.096Z,96
2023-03-12T20:20:23.252Z,96
2023-03-12T20:23:48.426Z,96
2023-03-12T20:27:13.610Z,96
2023-03-12T20:30:38.851Z,96
2023-03-12T20:34:04.029Z,96
2023-03-12T20:37:29.331Z,96
2023-03-12T20:40:54.491Z,96
2023-03-12T20:44:19.698Z,96
2023-03-12T20:47:45.023Z,95
2023-03-12T20:51:10.171Z,95
2023-03-12T20:54:35.392Z,95
2023-03-12T20:58:00.576Z,96
2023-03-12T21:01:25.865Z,96
2023-03-12T21:04:50.996Z,96
2023-03-12T21:08:16.136Z,96
2023-03-12T21:11:41.312Z,95
2023-03-12T21:15:06.601Z,95
2023-03-12T21:18:31.705Z,95
2023-03-12T21:21:56.933Z,95
2023-03-12T21:25:22.116Z,95
2023-03-12T21:28:47.305Z,95
2023-03-12T21:32:12.494Z,95
2023-03-12T21:35:37.731Z,95
2023-03-12T21:39:02.920Z,94
2023-03-12T21:42:28.091Z,94
2023-03-12T21:45:53.292Z,94
2023-03-12T21:49:18.556Z,94
2023-03-12T21:52:43.707Z,94
2023-03-12T21:56:08.904Z,94
2023-03-12T21:59:34.058Z,94
2023-03-12T22:02:59.259Z,93
2023-03-12T22:06:24.449Z,93
2023-03-12T22:09:49.630Z,93
2023-03-12T22:13:14.852Z,93
2023-03-12T22:16:40.006Z,93
2023-03-12T22:20:05.214Z,93
2023-03-12T22:23:30.407Z,93
2023-03-12T22:26:55.594Z,93
2023-03-12T22:30:20.798Z,93
2023-03-12T22:33:45.965Z,93
2023-03-12T22:37:11.153Z,93
2023-03-12T22:40:36.343Z,93
2023-03-12T22:44:01.535Z,93
2023-03-12T22:47:26.833Z,93
2023-03-12T22:50:51.903Z,93
2023-03-12T22:54:17.119Z,93
2023-03-12T22:57:42.302Z,93
2023-03-12T23:01:07.492Z,93
2023-03-12T23:04:32.724Z,92
2023-03-12T23:07:57.852Z,92
2023-03-12T23:11:23.025Z,92
2023-03-12T23:14:48.225Z,92
2023-03-12T23:18:13.414Z,92
2023-03-12T23:21:38.607Z,93
2023-03-12T23:25:03.789Z,93
2023-03-12T23:28:28.972Z,93
2023-03-12T23:31:54.164Z,93
2023-03-12T23:35:19.379Z,93
2023-03-12T23:38:44.568Z,93
2023-03-12T23:42:09.718Z,92
2023-03-12T23:45:34.978Z,92
2023-03-12T23:49:00.113Z,92
2023-03-12T23:52:25.307Z,92
2023-03-12T23:55:50.514Z,92
2023-03-12T23:59:15.693Z,92
